Terminal Aerodrome Forecast
Issued by NWS Sioux Falls, SD

Home | Current Version | Previous Version | Graphics & Text | Print | Product List | Glossary On
Versions: 1 2 3 4 5 6 7 8 9 10 11 12 13 14 15 16 17 18 19 20 21 22 23 24
000
FTUS43 KFSD 212300
TAFFSD
TAF
KFSD 212340Z 2200/2224 16013G18KT P6SM SCT150
     FM220100 18007KT P6SM SCT150
     FM220600 27006KT P6SM SKC
     FM221000 35012KT P6SM SCT200
     FM221500 35014G19KT P6SM SCT030
     FM222100 01013KT P6SM SCT045=

USA.gov is the U.S. government's official web portal to all federal, state and local government web resources and services.